メインページ
METAR-TAF:

METAR-TAF

空港 :

大館能代空港

大館能代, 日本

緯度: 40-11N, 経度: 140-12E, 海抜: 84m

現時点の気象観測

当レポートは12時間18分前の10:00(UTC)に作成
西の風 3kt
気温 9°C
湿度 100%
気圧 1017 hPa
視程: 6000m
高度1000ftの雲はほとんどない
高度4000ftの千切れ雲あり
弱いにわか雨

METAR: RJSR 161000Z 28003KT 6000 -SHRA FEW010 BKN040 09/09 Q1017

時間: 07:18 (22:18 UTC)


TAF: 見つかりません

4,000以上の空港の気象観測と天気予報(METAR報とTAF報)

利用可能な観測所は地図上に黄色い丸と赤い丸で示す。

丸の上にカーソルを重ねると観測所名を参照できる。

次にクリックすると気象観測と天気予報を参照できる。

マップの切り替え:黒色「×」印の緑ボタンをクリックして拡大、「-」印の緑ボタンをクリックして縮小、緑色の三角印をクリックして隣りの地図に切り替え


METAR-TAF: